Time,TemperatureF,DewpointF,PressureIn,WindDirection,WindDirectionDegrees,WindSpeedMPH,WindSpeedGustMPH,Humidity,HourlyPrecipIn,Conditions,Clouds,dailyrainin,SoftwareType,DateUTC
2013-04-01 00:01:00,55.8,54.7,29.99,SW,217,0.0,0.0,96,0.00,,,0.00,WeatherCatV1.02B3,2013-04-01 05:01:00,
2013-04-01 00:06:00,56.0,54.9,29.99,SW,217,0.0,0.0,96,0.00,,,0.00,WeatherCatV1.02B3,2013-04-01 05:06:00,
2013-04-01 00:11:00,56.2,55.1,29.99,SW,217,0.0,0.0,96,0.00,,,0.00,WeatherCatV1.02B3,2013-04-01 05:11:00,
2013-04-01 00:16:00,56.3,55.2,29.99,SW,217,0.0,0.0,96,0.00,,,0.00,WeatherCatV1.02B3,2013-04-01 05:16:00,
2013-04-01 00:21:00,56.4,55.3,29.99,SW,217,0.0,0.0,96,0.00,,,0.00,WeatherCatV1.02B3,2013-04-01 05:21:00,
2013-04-01 00:26:00,56.4,55.3,29.99,SW,217,0.0,0.0,96,0.00,,,0.00,WeatherCatV1.02B3,2013-04-01 05:26:00,
2013-04-01 00:31:00,56.4,55.3,29.99,SW,217,0.0,0.0,96,0.00,,,0.00,WeatherCatV1.02B3,2013-04-01 05:31:00,
2013-04-01 00:36:00,56.4,55.3,29.99,SW,217,0.0,0.0,96,0.00,,,0.00,WeatherCatV1.02B3,2013-04-01 05:36:00,
2013-04-01 00:41:00,56.4,55.3,29.99,SW,217,0.0,0.0,96,0.00,,,0.00,WeatherCatV1.02B3,2013-04-01 05:41:00,
2013-04-01 00:46:00,56.4,55.3,29.99,SW,217,0.0,0.0,96,0.00,,,0.00,WeatherCatV1.02B3,2013-04-01 05:46:00,
2013-04-01 00:51:00,56.4,55.3,29.99,SW,217,0.0,0.0,96,0.00,,,0.00,WeatherCatV1.02B3,2013-04-01 05:51:00,
2013-04-01 00:56:00,56.4,55.3,29.99,SW,217,0.0,0.0,96,0.00,,,0.00,WeatherCatV1.02B3,2013-04-01 05:56:00,
2013-04-01 01:01:00,56.4,55.3,29.99,SW,217,0.0,0.0,96,0.00,,,0.00,WeatherCatV1.02B3,2013-04-01 06:01:00,
2013-04-01 01:06:00,56.5,55.4,29.99,SW,217,0.0,0.0,96,0.00,,,0.00,WeatherCatV1.02B3,2013-04-01 06:06:00,
2013-04-01 01:11:00,56.5,55.4,29.99,SW,217,0.0,0.0,96,0.00,,,0.00,WeatherCatV1.02B3,2013-04-01 06:11:00,
2013-04-01 01:16:00,56.5,55.4,29.99,SW,217,0.0,0.0,96,0.00,,,0.00,WeatherCatV1.02B3,2013-04-01 06:16:00,
2013-04-01 01:21:00,56.5,55.4,29.99,SW,217,0.0,0.0,96,0.00,,,0.00,WeatherCatV1.02B3,2013-04-01 06:21:00,
2013-04-01 01:26:00,56.5,55.4,29.99,SW,217,0.0,0.0,96,0.00,,,0.00,WeatherCatV1.02B3,2013-04-01 06:26:00,
2013-04-01 01:31:00,56.5,55.4,29.99,SW,217,0.0,0.0,96,0.00,,,0.00,WeatherCatV1.02B3,2013-04-01 06:31:00,
2013-04-01 01:36:00,56.6,55.5,29.99,SW,217,0.0,0.0,96,0.00,,,0.00,WeatherCatV1.02B3,2013-04-01 06:36:00,
2013-04-01 01:41:00,56.6,55.5,29.99,SW,217,0.0,0.0,96,0.00,,,0.00,WeatherCatV1.02B3,2013-04-01 06:41:00,
2013-04-01 01:46:00,56.6,55.5,29.99,SW,217,0.0,0.0,96,0.00,,,0.00,WeatherCatV1.02B3,2013-04-01 06:46:00,
2013-04-01 01:51:00,56.7,55.6,29.99,SW,217,0.0,0.0,96,0.00,,,0.00,WeatherCatV1.02B3,2013-04-01 06:51:00,
2013-04-01 01:56:00,56.7,55.6,29.99,SW,217,0.0,0.0,96,0.00,,,0.00,WeatherCatV1.02B3,2013-04-01 06:56:00,
2013-04-01 02:01:00,56.7,55.6,29.99,SW,217,0.0,0.0,96,0.00,,,0.00,WeatherCatV1.02B3,2013-04-01 07:01:00,
2013-04-01 02:06:00,56.7,55.6,29.99,SW,217,0.0,0.0,96,0.00,,,0.00,WeatherCatV1.02B3,2013-04-01 07:06:00,
2013-04-01 02:11:00,56.6,55.5,29.99,SW,217,0.0,0.0,96,0.00,,,0.00,WeatherCatV1.02B3,2013-04-01 07:11:00,
2013-04-01 02:16:00,56.6,55.5,29.99,SW,217,0.0,0.0,96,0.00,,,0.00,WeatherCatV1.02B3,2013-04-01 07:16:00,
2013-04-01 02:21:00,56.6,55.5,29.99,SW,217,0.0,0.0,96,0.00,,,0.00,WeatherCatV1.02B3,2013-04-01 07:21:00,
2013-04-01 02:26:00,56.6,55.5,29.99,SW,217,0.0,0.0,96,0.00,,,0.00,WeatherCatV1.02B3,2013-04-01 07:26:00,
2013-04-01 02:31:00,56.6,55.5,29.99,SW,217,0.0,0.0,96,0.00,,,0.00,WeatherCatV1.02B3,2013-04-01 07:31:00,
2013-04-01 02:36:00,56.6,55.5,29.99,SW,217,0.0,0.0,96,0.00,,,0.00,WeatherCatV1.02B3,2013-04-01 07:36:00,
2013-04-01 02:41:00,56.6,55.5,29.99,SW,217,0.0,0.0,96,0.00,,,0.00,WeatherCatV1.02B3,2013-04-01 07:41:00,
2013-04-01 02:46:00,56.6,55.5,29.99,SW,217,0.0,0.0,96,0.00,,,0.00,WeatherCatV1.02B3,2013-04-01 07:46:00,
2013-04-01 02:51:00,56.6,55.5,29.99,SW,217,0.0,0.0,96,0.00,,,0.00,WeatherCatV1.02B3,2013-04-01 07:51:00,
2013-04-01 02:56:00,56.5,55.4,29.99,SW,217,0.0,0.0,96,0.00,,,0.00,WeatherCatV1.02B3,2013-04-01 07:56:00,
2013-04-01 03:01:00,56.5,55.4,29.98,SW,217,0.0,0.0,96,0.00,,,0.00,WeatherCatV1.02B3,2013-04-01 08:01:00,
2013-04-01 03:06:00,56.6,55.5,29.99,SW,217,0.0,0.0,96,0.00,,,0.00,WeatherCatV1.02B3,2013-04-01 08:06:00,
2013-04-01 03:11:00,56.6,55.5,29.99,SW,217,0.0,0.0,96,0.00,,,0.00,WeatherCatV1.02B3,2013-04-01 08:11:00,
2013-04-01 03:16:00,56.6,55.5,29.99,SW,217,0.0,0.0,96,0.00,,,0.00,WeatherCatV1.02B3,2013-04-01 08:16:00,
2013-04-01 03:21:00,56.6,55.5,29.98,SW,217,0.0,0.0,96,0.00,,,0.00,WeatherCatV1.02B3,2013-04-01 08:21:00,
2013-04-01 03:26:00,56.6,55.5,29.98,SW,217,0.0,0.0,96,0.00,,,0.00,WeatherCatV1.02B3,2013-04-01 08:26:00,
2013-04-01 03:31:00,56.6,55.5,29.98,SW,217,0.0,0.0,96,0.00,,,0.00,WeatherCatV1.02B3,2013-04-01 08:31:00,
2013-04-01 03:36:00,56.5,55.4,29.98,SW,217,0.0,0.0,96,0.00,,,0.00,WeatherCatV1.02B3,2013-04-01 08:36:00,
2013-04-01 03:41:00,56.4,55.3,29.99,SW,217,0.0,0.0,96,0.00,,,0.00,WeatherCatV1.02B3,2013-04-01 08:41:00,
2013-04-01 03:46:00,56.4,55.3,29.99,SW,217,0.0,0.0,96,0.00,,,0.00,WeatherCatV1.02B3,2013-04-01 08:46:00,
2013-04-01 03:51:00,56.4,55.3,29.99,SW,217,0.0,0.0,96,0.00,,,0.00,WeatherCatV1.02B3,2013-04-01 08:51:00,
2013-04-01 03:56:00,56.5,55.4,29.99,SW,217,0.0,0.0,96,0.00,,,0.00,WeatherCatV1.02B3,2013-04-01 08:56:00,
2013-04-01 04:01:00,56.5,55.4,29.99,SW,217,0.0,0.0,96,0.00,,,0.00,WeatherCatV1.02B3,2013-04-01 09:01:00,
2013-04-01 04:06:00,56.4,55.3,29.99,SW,217,0.0,0.0,96,0.00,,,0.00,WeatherCatV1.02B3,2013-04-01 09:06:00,
2013-04-01 04:11:00,56.1,55.0,29.99,SW,217,0.0,0.0,96,0.00,,,0.00,WeatherCatV1.02B3,2013-04-01 09:11:00,
2013-04-01 04:16:00,55.9,54.8,29.99,SW,217,0.0,0.0,96,0.00,,,0.00,WeatherCatV1.02B3,2013-04-01 09:16:00,
2013-04-01 04:21:00,55.7,54.6,30.00,SW,217,0.0,0.0,96,0.00,,,0.00,WeatherCatV1.02B3,2013-04-01 09:21:00,
2013-04-01 04:26:00,55.5,54.4,30.00,SW,217,0.0,0.0,96,0.00,,,0.00,WeatherCatV1.02B3,2013-04-01 09:26:00,
2013-04-01 04:31:00,55.5,54.4,30.00,SW,217,0.0,0.0,96,0.00,,,0.00,WeatherCatV1.02B3,2013-04-01 09:31:00,
2013-04-01 04:36:00,55.5,54.4,30.00,SW,217,0.0,0.0,96,0.00,,,0.00,WeatherCatV1.02B3,2013-04-01 09:36:00,
2013-04-01 04:42:00,55.4,54.3,30.00,SW,217,0.0,0.0,96,0.00,,,0.00,WeatherCatV1.02B3,2013-04-01 09:42:00,
2013-04-01 04:47:00,55.3,54.2,30.00,SW,217,0.0,0.0,96,0.00,,,0.00,WeatherCatV1.02B3,2013-04-01 09:47:00,
2013-04-01 04:52:00,55.2,54.1,30.00,SW,217,0.0,0.0,96,0.00,,,0.00,WeatherCatV1.02B3,2013-04-01 09:52:00,
2013-04-01 04:57:00,55.1,54.0,30.00,SW,217,0.0,0.0,96,0.00,,,0.00,WeatherCatV1.02B3,2013-04-01 09:57:00,
2013-04-01 05:02:00,55.0,53.9,30.00,SW,217,0.0,0.0,96,0.00,,,0.00,WeatherCatV1.02B3,2013-04-01 10:02:00,
2013-04-01 05:07:00,54.8,53.7,30.00,SW,217,0.0,0.0,96,0.00,,,0.00,WeatherCatV1.02B3,2013-04-01 10:07:00,
2013-04-01 05:12:00,54.5,53.4,30.01,SW,217,0.0,0.0,96,0.00,,,0.00,WeatherCatV1.02B3,2013-04-01 10:12:00,
2013-04-01 05:17:00,54.2,53.1,30.01,SW,217,0.0,0.0,96,0.00,,,0.00,WeatherCatV1.02B3,2013-04-01 10:17:00,
2013-04-01 05:22:00,54.0,52.9,30.01,SW,217,0.0,0.0,96,0.00,,,0.00,WeatherCatV1.02B3,2013-04-01 10:22:00,
2013-04-01 05:27:00,53.9,52.8,30.01,SW,217,0.0,0.0,96,0.00,,,0.00,WeatherCatV1.02B3,2013-04-01 10:27:00,
2013-04-01 05:32:00,53.8,52.7,30.02,SW,217,0.0,0.0,96,0.00,,,0.00,WeatherCatV1.02B3,2013-04-01 10:32:00,
2013-04-01 05:37:00,53.6,52.5,30.02,SW,217,0.0,0.0,96,0.00,,,0.00,WeatherCatV1.02B3,2013-04-01 10:37:00,
2013-04-01 05:42:00,53.6,52.5,30.02,SW,217,0.0,0.0,96,0.00,,,0.00,WeatherCatV1.02B3,2013-04-01 10:42:00,
2013-04-01 05:47:00,53.6,52.5,30.02,SW,217,0.0,0.0,96,0.00,,,0.00,WeatherCatV1.02B3,2013-04-01 10:47:00,
2013-04-01 05:52:00,53.7,52.6,30.03,SW,217,0.0,0.0,96,0.00,,,0.00,WeatherCatV1.02B3,2013-04-01 10:52:00,
2013-04-01 05:57:00,53.7,52.6,30.03,SW,217,0.0,0.0,96,0.00,,,0.00,WeatherCatV1.02B3,2013-04-01 10:57:00,
2013-04-01 06:02:00,53.9,52.8,30.03,SW,217,0.0,0.0,96,0.00,,,0.00,WeatherCatV1.02B3,2013-04-01 11:02:00,
2013-04-01 06:07:00,54.0,52.9,30.04,SW,217,0.0,0.0,96,0.00,,,0.00,WeatherCatV1.02B3,2013-04-01 11:07:00,
2013-04-01 06:12:00,54.0,52.9,30.04,SW,217,0.0,0.0,96,0.00,,,0.00,WeatherCatV1.02B3,2013-04-01 11:12:00,
2013-04-01 06:17:00,53.9,52.8,30.04,SW,217,0.0,0.0,96,0.00,,,0.00,WeatherCatV1.02B3,2013-04-01 11:17:00,
2013-04-01 06:22:00,53.9,52.8,30.04,SW,217,0.0,0.0,96,0.00,,,0.00,WeatherCatV1.02B3,2013-04-01 11:22:00,
2013-04-01 06:27:00,53.9,52.8,30.04,SW,217,0.0,0.0,96,0.00,,,0.00,WeatherCatV1.02B3,2013-04-01 11:27:00,
2013-04-01 06:32:00,54.0,52.9,30.05,SW,217,0.0,0.0,96,0.00,,,0.00,WeatherCatV1.02B3,2013-04-01 11:32:00,
2013-04-01 06:37:00,54.1,53.0,30.05,SW,217,0.0,0.0,96,0.00,,,0.00,WeatherCatV1.02B3,2013-04-01 11:37:00,
2013-04-01 06:42:00,54.2,53.4,30.06,SW,217,0.0,0.0,97,0.00,,,0.00,WeatherCatV1.02B3,2013-04-01 11:42:00,
2013-04-01 06:47:00,54.4,53.6,30.06,SW,217,0.0,0.0,97,0.00,,,0.00,WeatherCatV1.02B3,2013-04-01 11:47:00,
2013-04-01 06:52:00,54.5,53.4,30.06,SW,217,0.0,0.0,96,0.00,,,0.00,WeatherCatV1.02B3,2013-04-01 11:52:00,
2013-04-01 06:57:00,54.7,53.6,30.07,SW,217,0.0,0.0,96,0.00,,,0.00,WeatherCatV1.02B3,2013-04-01 11:57:00,
2013-04-01 07:02:00,55.0,54.2,30.07,SW,217,0.0,0.0,97,0.00,,,0.00,WeatherCatV1.02B3,2013-04-01 12:02:00,
2013-04-01 07:07:00,55.4,54.6,30.07,SW,217,0.0,0.0,97,0.00,,,0.00,WeatherCatV1.02B3,2013-04-01 12:07:00,
2013-04-01 07:12:00,55.8,55.0,30.07,SW,217,0.0,0.0,97,0.00,,,0.00,WeatherCatV1.02B3,2013-04-01 12:12:00,
2013-04-01 07:17:00,56.0,55.2,30.07,SW,217,0.0,0.0,97,0.00,,,0.00,WeatherCatV1.02B3,2013-04-01 12:17:00,
2013-04-01 07:22:00,56.1,55.3,30.07,SW,217,0.0,0.0,97,0.00,,,0.00,WeatherCatV1.02B3,2013-04-01 12:22:00,
2013-04-01 07:27:00,56.2,55.4,30.08,SW,217,0.0,0.0,97,0.00,,,0.00,WeatherCatV1.02B3,2013-04-01 12:27:00,
2013-04-01 07:32:00,56.2,55.4,30.08,SW,217,0.0,0.0,97,0.00,,,0.00,WeatherCatV1.02B3,2013-04-01 12:32:00,
2013-04-01 07:37:00,56.2,55.4,30.08,SW,217,0.0,0.0,97,0.00,,,0.00,WeatherCatV1.02B3,2013-04-01 12:37:00,
2013-04-01 07:42:00,56.2,55.4,30.08,SW,217,0.0,0.0,97,0.00,,,0.00,WeatherCatV1.02B3,2013-04-01 12:42:00,
2013-04-01 07:47:00,56.3,55.5,30.08,SW,217,0.0,1.0,97,0.00,,,0.00,WeatherCatV1.02B3,2013-04-01 12:47:00,
2013-04-01 07:52:00,56.3,55.5,30.09,SW,217,0.0,0.0,97,0.00,,,0.00,WeatherCatV1.02B3,2013-04-01 12:52:00,
2013-04-01 07:57:00,56.3,55.5,30.09,SW,217,0.0,1.0,97,0.00,,,0.00,WeatherCatV1.02B3,2013-04-01 12:57:00,
2013-04-01 08:02:00,56.4,55.6,30.09,SW,217,0.0,0.0,97,0.00,,,0.00,WeatherCatV1.02B3,2013-04-01 13:02:00,
2013-04-01 08:07:00,56.5,55.7,30.09,SW,217,1.0,1.0,97,0.00,,,0.00,WeatherCatV1.02B3,2013-04-01 13:07:00,
2013-04-01 08:12:00,56.6,55.8,30.09,SW,217,0.0,0.0,97,0.00,,,0.00,WeatherCatV1.02B3,2013-04-01 13:12:00,
2013-04-01 08:17:00,56.7,55.9,30.09,SW,217,0.0,1.0,97,0.00,,,0.00,WeatherCatV1.02B3,2013-04-01 13:17:00,
2013-04-01 08:22:00,56.8,56.0,30.10,SW,217,0.0,0.0,97,0.00,,,0.00,WeatherCatV1.02B3,2013-04-01 13:22:00,
2013-04-01 08:27:00,56.9,56.1,30.10,SW,217,0.0,1.0,97,0.00,,,0.00,WeatherCatV1.02B3,2013-04-01 13:27:00,
2013-04-01 08:32:00,56.8,56.0,30.10,SW,217,0.0,3.0,97,0.00,,,0.00,WeatherCatV1.02B3,2013-04-01 13:32:00,
2013-04-01 08:37:00,56.8,55.7,30.10,SW,217,1.0,2.0,96,0.00,,,0.00,WeatherCatV1.02B3,2013-04-01 13:37:00,
2013-04-01 08:42:00,56.7,55.9,30.10,SW,217,0.0,1.0,97,0.00,,,0.00,WeatherCatV1.02B3,2013-04-01 13:42:00,
2013-04-01 08:47:00,56.6,55.5,30.10,SW,217,0.0,0.0,96,0.00,,,0.00,WeatherCatV1.02B3,2013-04-01 13:47:00,
2013-04-01 08:52:00,56.8,56.0,30.10,SW,217,0.0,0.0,97,0.00,,,0.00,WeatherCatV1.02B3,2013-04-01 13:52:00,
2013-04-01 08:57:00,56.9,56.1,30.11,SSW,198,0.0,0.0,97,0.00,,,0.00,WeatherCatV1.02B3,2013-04-01 13:57:00,
2013-04-01 09:02:00,56.9,55.8,30.11,SSW,198,0.0,0.0,96,0.00,,,0.00,WeatherCatV1.02B3,2013-04-01 14:02:00,
2013-04-01 09:07:00,57.2,56.1,30.11,SW,219,0.0,3.0,96,0.00,,,0.00,WeatherCatV1.02B3,2013-04-01 14:07:00,
2013-04-01 09:12:00,57.4,56.3,30.11,SSW,210,0.0,1.0,96,0.00,,,0.00,WeatherCatV1.02B3,2013-04-01 14:12:00,
2013-04-01 09:17:00,57.6,56.5,30.11,SSW,210,0.0,2.0,96,0.00,,,0.00,WeatherCatV1.02B3,2013-04-01 14:17:00,
2013-04-01 09:22:00,57.5,56.4,30.11,South,186,0.0,4.0,96,0.00,,,0.00,WeatherCatV1.02B3,2013-04-01 14:22:00,
2013-04-01 09:27:00,57.6,56.5,30.11,South,190,1.0,3.0,96,0.00,,,0.00,WeatherCatV1.02B3,2013-04-01 14:27:00,
2013-04-01 09:32:00,57.8,56.7,30.12,South,188,0.0,4.0,96,0.00,,,0.00,WeatherCatV1.02B3,2013-04-01 14:32:00,
2013-04-01 09:37:00,58.0,56.6,30.12,SSW,196,0.0,4.0,95,0.00,,,0.00,WeatherCatV1.02B3,2013-04-01 14:37:00,
2013-04-01 09:42:00,58.2,56.8,30.12,South,178,4.0,4.0,95,0.00,,,0.00,WeatherCatV1.02B3,2013-04-01 14:42:00,
2013-04-01 09:47:00,58.3,56.9,30.12,SSE,150,1.0,7.0,95,0.00,,,0.00,WeatherCatV1.02B3,2013-04-01 14:47:00,
2013-04-01 09:52:00,58.4,56.7,30.12,South,185,2.0,5.0,94,0.00,,,0.00,WeatherCatV1.02B3,2013-04-01 14:52:00,
2013-04-01 09:57:00,58.6,56.9,30.12,South,180,0.0,1.0,94,0.00,,,0.00,WeatherCatV1.02B3,2013-04-01 14:57:00,
2013-04-01 10:02:00,58.9,56.9,30.12,SE,132,1.0,5.0,93,0.00,,,0.00,WeatherCatV1.02B3,2013-04-01 15:02:00,
2013-04-01 10:07:00,59.5,56.9,30.12,SSE,159,0.0,2.0,91,0.00,,,0.00,WeatherCatV1.02B3,2013-04-01 15:07:00,
2013-04-01 10:12:00,60.0,57.4,30.12,South,187,0.0,2.0,91,0.00,,,0.00,WeatherCatV1.02B3,2013-04-01 15:12:00,
2013-04-01 10:17:00,60.7,57.7,30.13,South,179,1.0,6.0,90,0.00,,,0.00,WeatherCatV1.02B3,2013-04-01 15:17:00,
2013-04-01 10:22:00,61.2,57.9,30.12,South,173,0.0,2.0,89,0.00,,,0.00,WeatherCatV1.02B3,2013-04-01 15:22:00,
2013-04-01 10:27:00,61.5,57.6,30.12,South,174,0.0,7.0,87,0.00,,,0.00,WeatherCatV1.02B3,2013-04-01 15:27:00,
2013-04-01 10:32:00,61.7,57.5,30.13,SSW,198,3.0,3.0,86,0.00,,,0.00,WeatherCatV1.02B3,2013-04-01 15:32:00,
2013-04-01 10:37:00,61.9,57.0,30.13,SSE,163,0.0,0.0,84,0.00,,,0.00,WeatherCatV1.02B3,2013-04-01 15:37:00,
2013-04-01 10:42:00,62.2,57.3,30.13,SSW,205,0.0,3.0,84,0.00,,,0.00,WeatherCatV1.02B3,2013-04-01 15:42:00,
2013-04-01 10:47:00,62.6,57.7,30.13,SSW,213,0.0,3.0,84,0.00,,,0.00,WeatherCatV1.02B3,2013-04-01 15:47:00,
2013-04-01 10:52:00,62.8,57.2,30.13,SW,227,2.0,6.0,82,0.00,,,0.00,WeatherCatV1.02B3,2013-04-01 15:52:00,
2013-04-01 10:57:00,62.9,57.3,30.13,SSW,211,1.0,5.0,82,0.00,,,0.00,WeatherCatV1.02B3,2013-04-01 15:57:00,
2013-04-01 11:02:00,63.1,57.2,30.13,SW,221,0.0,2.0,81,0.00,,,0.00,WeatherCatV1.02B3,2013-04-01 16:02:00,
2013-04-01 11:07:00,63.3,57.0,30.14,West,260,2.0,2.0,80,0.00,,,0.00,WeatherCatV1.02B3,2013-04-01 16:07:00,
2013-04-01 11:12:00,63.5,56.5,30.14,SSW,200,0.0,1.0,78,0.00,,,0.00,WeatherCatV1.02B3,2013-04-01 16:12:00,
2013-04-01 11:17:00,63.6,56.6,30.14,South,182,2.0,3.0,78,0.00,,,0.00,WeatherCatV1.02B3,2013-04-01 16:17:00,
2013-04-01 11:22:00,63.9,56.5,30.14,West,272,0.0,3.0,77,0.00,,,0.00,WeatherCatV1.02B3,2013-04-01 16:22:00,
2013-04-01 11:27:00,64.2,56.8,30.14,South,191,1.0,2.0,77,0.00,,,0.00,WeatherCatV1.02B3,2013-04-01 16:27:00,
2013-04-01 11:32:00,64.5,56.8,30.14,SSW,192,0.0,2.0,76,0.00,,,0.00,WeatherCatV1.02B3,2013-04-01 16:32:00,
2013-04-01 11:37:00,64.9,56.8,30.14,South,185,0.0,6.0,75,0.00,,,0.00,WeatherCatV1.02B3,2013-04-01 16:37:00,
2013-04-01 11:42:00,65.1,56.2,30.14,SE,140,4.0,4.0,73,0.00,,,0.00,WeatherCatV1.02B3,2013-04-01 16:42:00,
2013-04-01 11:47:00,65.3,55.6,30.14,WNW,288,0.0,2.0,71,0.00,,,0.00,WeatherCatV1.02B3,2013-04-01 16:47:00,
2013-04-01 11:52:00,65.6,55.5,30.14,SE,143,0.0,6.0,70,0.00,,,0.00,WeatherCatV1.02B3,2013-04-01 16:52:00,
2013-04-01 11:57:00,65.9,55.0,30.14,ENE,61,1.0,2.0,68,0.00,,,0.00,WeatherCatV1.02B3,2013-04-01 16:57:00,
2013-04-01 12:02:00,66.0,55.1,30.14,South,175,2.0,4.0,68,0.00,,,0.00,WeatherCatV1.02B3,2013-04-01 17:02:00,
2013-04-01 12:07:00,66.2,54.1,30.14,SW,214,2.0,6.0,65,0.00,,,0.00,WeatherCatV1.02B3,2013-04-01 17:07:00,
2013-04-01 12:12:00,66.8,54.6,30.14,South,182,2.0,5.0,65,0.00,,,0.00,WeatherCatV1.02B3,2013-04-01 17:12:00,
2013-04-01 12:17:00,67.3,53.8,30.14,SSE,159,4.0,5.0,62,0.00,,,0.00,WeatherCatV1.02B3,2013-04-01 17:17:00,
2013-04-01 12:22:00,67.7,53.3,30.13,West,273,0.0,4.0,60,0.00,,,0.00,WeatherCatV1.02B3,2013-04-01 17:22:00,
2013-04-01 12:27:00,68.3,52.5,30.13,WSW,254,0.0,9.0,57,0.00,,,0.00,WeatherCatV1.02B3,2013-04-01 17:27:00,
2013-04-01 12:32:00,68.8,52.9,30.13,SSW,213,2.0,5.0,57,0.00,,,0.00,WeatherCatV1.02B3,2013-04-01 17:32:00,
2013-04-01 12:37:00,69.1,53.7,30.13,South,187,0.0,5.0,58,0.00,,,0.00,WeatherCatV1.02B3,2013-04-01 17:37:00,
2013-04-01 12:42:00,69.3,55.7,30.13,SW,222,0.0,5.0,62,0.00,,,0.00,WeatherCatV1.02B3,2013-04-01 17:42:00,
2013-04-01 12:47:00,69.7,54.2,30.12,SW,221,2.0,3.0,58,0.00,,,0.00,WeatherCatV1.02B3,2013-04-01 17:47:00,
2013-04-01 12:52:00,69.8,53.9,30.12,SSE,151,1.0,1.0,57,0.00,,,0.00,WeatherCatV1.02B3,2013-04-01 17:52:00,
2013-04-01 12:57:00,69.7,53.8,30.12,SSE,154,1.0,6.0,57,0.00,,,0.00,WeatherCatV1.02B3,2013-04-01 17:57:00,
2013-04-01 13:02:00,69.8,53.9,30.12,ESE,119,0.0,5.0,57,0.00,,,0.00,WeatherCatV1.02B3,2013-04-01 18:02:00,
2013-04-01 13:07:00,70.0,55.5,30.11,SSW,213,3.0,5.0,60,0.00,,,0.00,WeatherCatV1.02B3,2013-04-01 18:07:00,
2013-04-01 13:12:00,70.3,54.8,30.11,WSW,242,3.0,4.0,58,0.00,,,0.00,WeatherCatV1.02B3,2013-04-01 18:12:00,
2013-04-01 13:17:00,70.2,53.3,30.11,South,172,2.0,5.0,55,0.00,,,0.00,WeatherCatV1.02B3,2013-04-01 18:17:00,
2013-04-01 13:22:00,70.0,52.6,30.11,South,172,1.0,4.0,54,0.00,,,0.00,WeatherCatV1.02B3,2013-04-01 18:22:00,
2013-04-01 13:27:00,70.3,52.3,30.11,SSE,159,1.0,1.0,53,0.00,,,0.00,WeatherCatV1.02B3,2013-04-01 18:27:00,
2013-04-01 13:32:00,70.4,51.9,30.11,SSE,148,5.0,9.0,52,0.00,,,0.00,WeatherCatV1.02B3,2013-04-01 18:32:00,
2013-04-01 13:37:00,70.6,54.6,30.11,ENE,75,2.0,4.0,57,0.00,,,0.00,WeatherCatV1.02B3,2013-04-01 18:37:00,
2013-04-01 13:42:00,70.8,52.8,30.11,WSW,241,0.0,2.0,53,0.00,,,0.00,WeatherCatV1.02B3,2013-04-01 18:42:00,
2013-04-01 13:47:00,71.1,53.6,30.10,SW,236,3.0,5.0,54,0.00,,,0.00,WeatherCatV1.02B3,2013-04-01 18:47:00,
2013-04-01 13:52:00,71.6,53.0,30.10,SSE,158,0.0,8.0,52,0.00,,,0.00,WeatherCatV1.02B3,2013-04-01 18:52:00,
2013-04-01 13:57:00,71.8,52.7,30.10,SSE,149,0.0,1.0,51,0.00,,,0.00,WeatherCatV1.02B3,2013-04-01 18:57:00,
2013-04-01 14:02:00,72.3,52.1,30.10,ESE,109,0.0,6.0,49,0.00,,,0.00,WeatherCatV1.02B3,2013-04-01 19:02:00,
2013-04-01 14:07:00,72.2,52.5,30.10,South,179,0.0,2.0,50,0.00,,,0.00,WeatherCatV1.02B3,2013-04-01 19:07:00,
2013-04-01 14:12:00,73.0,54.3,30.09,SSE,166,2.0,5.0,52,0.00,,,0.00,WeatherCatV1.02B3,2013-04-01 19:12:00,
2013-04-01 14:17:00,73.2,51.7,30.09,ENE,64,1.0,2.0,47,0.00,,,0.00,WeatherCatV1.02B3,2013-04-01 19:17:00,
2013-04-01 14:22:00,72.9,51.5,30.09,South,179,0.0,1.0,47,0.00,,,0.00,WeatherCatV1.02B3,2013-04-01 19:22:00,
2013-04-01 14:27:00,73.4,50.8,30.08,SE,133,0.0,8.0,45,0.00,,,0.00,WeatherCatV1.02B3,2013-04-01 19:27:00,
2013-04-01 14:32:00,73.3,50.7,30.08,SSW,211,0.0,5.0,45,0.00,,,0.00,WeatherCatV1.02B3,2013-04-01 19:32:00,
2013-04-01 14:37:00,72.9,50.3,30.08,South,179,4.0,5.0,45,0.00,,,0.00,WeatherCatV1.02B3,2013-04-01 19:37:00,
2013-04-01 14:42:00,72.9,50.9,30.08,South,187,3.0,8.0,46,0.00,,,0.00,WeatherCatV1.02B3,2013-04-01 19:42:00,
2013-04-01 14:47:00,73.2,49.3,30.07,NNE,25,0.0,4.0,43,0.00,,,0.00,WeatherCatV1.02B3,2013-04-01 19:47:00,
2013-04-01 14:52:00,73.0,49.8,30.07,South,183,2.0,7.0,44,0.00,,,0.00,WeatherCatV1.02B3,2013-04-01 19:52:00,
2013-04-01 14:57:00,73.4,48.3,30.07,SE,142,0.0,8.0,41,0.00,,,0.00,WeatherCatV1.02B3,2013-04-01 19:57:00,
2013-04-01 15:02:00,73.2,50.0,30.07,SE,134,1.0,6.0,44,0.00,,,0.00,WeatherCatV1.02B3,2013-04-01 20:02:00,
2013-04-01 15:07:00,73.7,49.8,30.07,West,268,1.0,5.0,43,0.00,,,0.00,WeatherCatV1.02B3,2013-04-01 20:07:00,
2013-04-01 15:12:00,73.9,50.6,30.07,ESE,117,0.0,7.0,44,0.00,,,0.00,WeatherCatV1.02B3,2013-04-01 20:12:00,
2013-04-01 15:17:00,73.4,49.5,30.07,East,98,2.0,2.0,43,0.00,,,0.00,WeatherCatV1.02B3,2013-04-01 20:17:00,
2013-04-01 15:22:00,73.5,49.0,30.07,South,173,4.0,4.0,42,0.00,,,0.00,WeatherCatV1.02B3,2013-04-01 20:22:00,
2013-04-01 15:27:00,74.0,48.8,30.07,SE,146,0.0,8.0,41,0.00,,,0.00,WeatherCatV1.02B3,2013-04-01 20:27:00,
2013-04-01 15:32:00,73.1,49.9,30.06,ENE,73,0.0,1.0,44,0.00,,,0.00,WeatherCatV1.02B3,2013-04-01 20:32:00,
2013-04-01 15:37:00,73.5,47.0,30.06,SE,136,1.0,4.0,39,0.00,,,0.00,WeatherCatV1.02B3,2013-04-01 20:37:00,
2013-04-01 15:42:00,73.4,50.8,30.06,SSW,203,0.0,6.0,45,0.00,,,0.00,WeatherCatV1.02B3,2013-04-01 20:42:00,
2013-04-01 15:47:00,74.0,48.1,30.06,SSE,150,0.0,4.0,40,0.00,,,0.00,WeatherCatV1.02B3,2013-04-01 20:47:00,
2013-04-01 15:52:00,73.9,48.0,30.06,South,189,5.0,5.0,40,0.00,,,0.00,WeatherCatV1.02B3,2013-04-01 20:52:00,
2013-04-01 15:57:00,74.5,49.2,30.06,SSW,202,1.0,8.0,41,0.00,,,0.00,WeatherCatV1.02B3,2013-04-01 20:57:00,
2013-04-01 16:02:00,74.1,52.0,30.05,ESE,102,0.0,1.0,46,0.00,,,0.00,WeatherCatV1.02B3,2013-04-01 21:02:00,
2013-04-01 16:07:00,74.4,48.5,30.06,NE,51,3.0,4.0,40,0.00,,,0.00,WeatherCatV1.02B3,2013-04-01 21:07:00,
2013-04-01 16:12:00,73.2,47.4,30.05,NNE,16,0.0,1.0,40,0.00,,,0.00,WeatherCatV1.02B3,2013-04-01 21:12:00,
2013-04-01 16:17:00,73.1,48.0,30.05,SSE,148,0.0,3.0,41,0.00,,,0.00,WeatherCatV1.02B3,2013-04-01 21:17:00,
2013-04-01 16:22:00,73.8,48.6,30.06,South,182,0.0,5.0,41,0.00,,,0.00,WeatherCatV1.02B3,2013-04-01 21:22:00,
2013-04-01 16:27:00,74.7,50.7,30.06,South,183,0.0,3.0,43,0.00,,,0.00,WeatherCatV1.02B3,2013-04-01 21:27:00,
2013-04-01 16:32:00,74.2,48.3,30.06,South,175,2.0,5.0,40,0.00,,,0.00,WeatherCatV1.02B3,2013-04-01 21:32:00,
2013-04-01 16:37:00,74.4,49.1,30.06,ENE,63,2.0,4.0,41,0.00,,,0.00,WeatherCatV1.02B3,2013-04-01 21:37:00,
2013-04-01 16:42:00,74.6,50.0,30.06,SW,217,0.0,7.0,42,0.00,,,0.00,WeatherCatV1.02B3,2013-04-01 21:42:00,
2013-04-01 16:47:00,75.2,49.9,30.05,ESE,109,2.0,2.0,41,0.00,,,0.00,WeatherCatV1.02B3,2013-04-01 21:47:00,
2013-04-01 16:52:00,75.6,50.2,30.05,SE,140,0.0,4.0,41,0.00,,,0.00,WeatherCatV1.02B3,2013-04-01 21:52:00,
2013-04-01 16:57:00,74.8,49.5,30.05,East,93,1.0,1.0,41,0.00,,,0.00,WeatherCatV1.02B3,2013-04-01 21:57:00,
2013-04-01 17:02:00,74.2,49.6,30.05,ENE,64,2.0,4.0,42,0.00,,,0.00,WeatherCatV1.02B3,2013-04-01 22:02:00,
2013-04-01 17:07:00,74.6,50.0,30.05,SSE,157,0.0,4.0,42,0.00,,,0.00,WeatherCatV1.02B3,2013-04-01 22:07:00,
2013-04-01 17:12:00,75.1,49.1,30.05,South,173,0.0,5.0,40,0.00,,,0.00,WeatherCatV1.02B3,2013-04-01 22:12:00,
2013-04-01 17:17:00,75.1,49.8,30.05,SSE,153,0.0,2.0,41,0.00,,,0.00,WeatherCatV1.02B3,2013-04-01 22:17:00,
2013-04-01 17:22:00,74.2,49.0,30.05,South,170,0.0,4.0,41,0.00,,,0.00,WeatherCatV1.02B3,2013-04-01 22:22:00,
2013-04-01 17:27:00,73.4,47.6,30.05,East,94,0.0,4.0,40,0.00,,,0.00,WeatherCatV1.02B3,2013-04-01 22:27:00,
2013-04-01 17:32:00,73.2,47.4,30.05,NNW,335,0.0,1.0,40,0.00,,,0.00,WeatherCatV1.02B3,2013-04-01 22:32:00,
2013-04-01 17:37:00,73.4,47.6,30.05,SW,219,0.0,2.0,40,0.00,,,0.00,WeatherCatV1.02B3,2013-04-01 22:37:00,
2013-04-01 17:42:00,73.7,48.5,30.05,East,86,2.0,3.0,41,0.00,,,0.00,WeatherCatV1.02B3,2013-04-01 22:42:00,
2013-04-01 17:47:00,73.6,47.8,30.05,NE,51,0.0,1.0,40,0.00,,,0.00,WeatherCatV1.02B3,2013-04-01 22:47:00,
2013-04-01 17:52:00,73.4,47.6,30.05,ENE,58,0.0,2.0,40,0.00,,,0.00,WeatherCatV1.02B3,2013-04-01 22:52:00,
2013-04-01 17:57:00,73.1,47.3,30.05,ESE,121,0.0,1.0,40,0.00,,,0.00,WeatherCatV1.02B3,2013-04-01 22:57:00,
2013-04-01 18:02:00,72.9,47.8,30.05,ENE,72,0.0,2.0,41,0.00,,,0.00,WeatherCatV1.02B3,2013-04-01 23:02:00,
2013-04-01 18:07:00,73.1,48.0,30.05,ENE,77,1.0,1.0,41,0.00,,,0.00,WeatherCatV1.02B3,2013-04-01 23:07:00,
2013-04-01 18:12:00,73.1,46.7,30.05,ENE,76,0.0,1.0,39,0.00,,,0.00,WeatherCatV1.02B3,2013-04-01 23:12:00,
2013-04-01 18:17:00,73.2,47.4,30.05,ENE,76,0.0,0.0,40,0.00,,,0.00,WeatherCatV1.02B3,2013-04-01 23:17:00,
2013-04-01 18:22:00,72.9,47.8,30.05,ENE,76,0.0,0.0,41,0.00,,,0.00,WeatherCatV1.02B3,2013-04-01 23:22:00,
2013-04-01 18:27:00,72.4,46.7,30.05,ENE,76,0.0,1.0,40,0.00,,,0.00,WeatherCatV1.02B3,2013-04-01 23:27:00,
2013-04-01 18:32:00,72.4,46.7,30.05,SSE,147,0.0,2.0,40,0.00,,,0.00,WeatherCatV1.02B3,2013-04-01 23:32:00,
2013-04-01 18:37:00,72.3,47.3,30.05,SSE,147,0.0,1.0,41,0.00,,,0.00,WeatherCatV1.02B3,2013-04-01 23:37:00,
2013-04-01 18:42:00,72.2,47.2,30.05,SSE,147,0.0,1.0,41,0.00,,,0.00,WeatherCatV1.02B3,2013-04-01 23:42:00,
2013-04-01 18:47:00,72.0,46.3,30.05,SSE,147,0.0,0.0,40,0.00,,,0.00,WeatherCatV1.02B3,2013-04-01 23:47:00,
2013-04-01 18:52:00,71.8,48.7,30.05,SSE,147,0.0,0.0,44,0.00,,,0.00,WeatherCatV1.02B3,2013-04-01 23:52:00,
2013-04-01 18:57:00,71.6,49.1,30.05,SSE,147,0.0,0.0,45,0.00,,,0.00,WeatherCatV1.02B3,2013-04-01 23:57:00,
2013-04-01 19:02:00,71.3,50.0,30.05,SSE,147,0.0,0.0,47,0.00,,,0.00,WeatherCatV1.02B3,2013-04-02 00:02:00,
2013-04-01 19:07:00,70.8,49.6,30.05,SSE,147,0.0,0.0,47,0.00,,,0.00,WeatherCatV1.02B3,2013-04-02 00:07:00,
2013-04-01 19:12:00,70.3,49.7,30.05,SSE,147,0.0,0.0,48,0.00,,,0.00,WeatherCatV1.02B3,2013-04-02 00:12:00,
2013-04-01 19:17:00,69.8,49.8,30.05,SSE,147,0.0,0.0,49,0.00,,,0.00,WeatherCatV1.02B3,2013-04-02 00:17:00,
2013-04-01 19:22:00,69.1,50.2,30.05,SSE,147,0.0,0.0,51,0.00,,,0.00,WeatherCatV1.02B3,2013-04-02 00:22:00,
2013-04-01 19:27:00,68.5,50.2,30.05,SSE,147,0.0,0.0,52,0.00,,,0.00,WeatherCatV1.02B3,2013-04-02 00:27:00,
2013-04-01 19:32:00,67.9,49.6,30.05,SSE,147,0.0,0.0,52,0.00,,,0.00,WeatherCatV1.02B3,2013-04-02 00:32:00,
2013-04-01 19:37:00,67.4,49.7,30.05,SSE,147,0.0,0.0,53,0.00,,,0.00,WeatherCatV1.02B3,2013-04-02 00:37:00,
2013-04-01 19:42:00,66.8,49.6,30.05,SSE,147,0.0,0.0,54,0.00,,,0.00,WeatherCatV1.02B3,2013-04-02 00:42:00,
2013-04-01 19:47:00,66.2,49.1,30.05,SSE,147,0.0,0.0,54,0.00,,,0.00,WeatherCatV1.02B3,2013-04-02 00:47:00,
2013-04-01 19:52:00,65.7,49.6,30.05,SSE,147,0.0,0.0,56,0.00,,,0.00,WeatherCatV1.02B3,2013-04-02 00:52:00,
2013-04-01 19:57:00,65.2,49.6,30.06,SSE,147,0.0,0.0,57,0.00,,,0.00,WeatherCatV1.02B3,2013-04-02 00:57:00,
2013-04-01 20:02:00,64.7,49.6,30.06,SSE,147,0.0,0.0,58,0.00,,,0.00,WeatherCatV1.02B3,2013-04-02 01:02:00,
2013-04-01 20:07:00,64.2,49.1,30.06,SSE,147,0.0,0.0,58,0.00,,,0.00,WeatherCatV1.02B3,2013-04-02 01:07:00,
2013-04-01 20:12:00,63.8,49.2,30.06,SSE,147,0.0,0.0,59,0.00,,,0.00,WeatherCatV1.02B3,2013-04-02 01:12:00,
2013-04-01 20:17:00,63.5,49.4,30.06,SSE,147,0.0,0.0,60,0.00,,,0.00,WeatherCatV1.02B3,2013-04-02 01:17:00,
2013-04-01 20:22:00,63.2,49.5,30.06,SSE,147,0.0,0.0,61,0.00,,,0.00,WeatherCatV1.02B3,2013-04-02 01:22:00,
2013-04-01 20:27:00,62.9,50.1,30.07,SSE,147,0.0,0.0,63,0.00,,,0.00,WeatherCatV1.02B3,2013-04-02 01:27:00,
2013-04-01 20:32:00,62.5,49.7,30.07,SSE,147,0.0,0.0,63,0.00,,,0.00,WeatherCatV1.02B3,2013-04-02 01:32:00,
2013-04-01 20:37:00,62.2,49.9,30.07,SSE,147,0.0,0.0,64,0.00,,,0.00,WeatherCatV1.02B3,2013-04-02 01:37:00,
2013-04-01 20:42:00,61.9,50.0,30.07,SSE,147,0.0,0.0,65,0.00,,,0.00,WeatherCatV1.02B3,2013-04-02 01:42:00,
2013-04-01 20:47:00,61.6,50.1,30.07,SSE,147,0.0,0.0,66,0.00,,,0.00,WeatherCatV1.02B3,2013-04-02 01:47:00,
2013-04-01 20:52:00,61.3,50.6,30.07,SSE,147,0.0,1.0,68,0.00,,,0.00,WeatherCatV1.02B3,2013-04-02 01:52:00,
2013-04-01 20:57:00,61.1,51.2,30.07,SSE,147,0.0,0.0,70,0.00,,,0.00,WeatherCatV1.02B3,2013-04-02 01:57:00,
2013-04-01 21:02:00,61.1,51.6,30.07,SSE,147,0.0,0.0,71,0.00,,,0.00,WeatherCatV1.02B3,2013-04-02 02:02:00,
2013-04-01 21:07:00,61.0,51.1,30.07,SSE,147,0.0,0.0,70,0.00,,,0.00,WeatherCatV1.02B3,2013-04-02 02:07:00,
2013-04-01 21:12:00,60.9,51.4,30.08,SSE,147,0.0,0.0,71,0.00,,,0.00,WeatherCatV1.02B3,2013-04-02 02:12:00,
2013-04-01 21:17:00,60.8,51.3,30.08,SSE,147,0.0,0.0,71,0.00,,,0.00,WeatherCatV1.02B3,2013-04-02 02:17:00,
2013-04-01 21:22:00,60.7,51.6,30.08,SSE,147,0.0,0.0,72,0.00,,,0.00,WeatherCatV1.02B3,2013-04-02 02:22:00,
2013-04-01 21:27:00,60.7,52.0,30.08,SSE,147,0.0,0.0,73,0.00,,,0.00,WeatherCatV1.02B3,2013-04-02 02:27:00,
2013-04-01 21:32:00,60.6,51.9,30.08,SSE,147,0.0,0.0,73,0.00,,,0.00,WeatherCatV1.02B3,2013-04-02 02:32:00,
2013-04-01 21:37:00,60.6,51.9,30.08,SSE,147,0.0,0.0,73,0.00,,,0.00,WeatherCatV1.02B3,2013-04-02 02:37:00,
2013-04-01 21:42:00,60.6,52.3,30.08,SSE,147,0.0,0.0,74,0.00,,,0.00,WeatherCatV1.02B3,2013-04-02 02:42:00,
2013-04-01 21:47:00,60.6,52.3,30.09,SSE,147,0.0,0.0,74,0.00,,,0.00,WeatherCatV1.02B3,2013-04-02 02:47:00,
2013-04-01 21:52:00,60.6,52.3,30.09,SSE,147,0.0,1.0,74,0.00,,,0.00,WeatherCatV1.02B3,2013-04-02 02:52:00,
2013-04-01 21:57:00,60.6,52.3,30.09,SSE,147,0.0,0.0,74,0.00,,,0.00,WeatherCatV1.02B3,2013-04-02 02:57:00,
2013-04-01 22:02:00,60.5,52.5,30.09,SSE,147,0.0,0.0,75,0.00,,,0.00,WeatherCatV1.02B3,2013-04-02 03:02:00,
2013-04-01 22:07:00,60.6,52.6,30.10,SSE,147,0.0,0.0,75,0.00,,,0.00,WeatherCatV1.02B3,2013-04-02 03:07:00,
2013-04-01 22:12:00,60.6,52.3,30.10,SSE,147,0.0,0.0,74,0.00,,,0.00,WeatherCatV1.02B3,2013-04-02 03:12:00,
2013-04-01 22:17:00,60.7,52.4,30.10,SSE,147,0.0,2.0,74,0.00,,,0.00,WeatherCatV1.02B3,2013-04-02 03:17:00,
2013-04-01 22:22:00,60.8,52.5,30.10,South,186,0.0,5.0,74,0.00,,,0.00,WeatherCatV1.02B3,2013-04-02 03:22:00,
2013-04-01 22:27:00,61.0,52.3,30.10,WSW,258,0.0,0.0,73,0.00,,,0.00,WeatherCatV1.02B3,2013-04-02 03:27:00,
2013-04-01 22:32:00,61.1,52.4,30.10,WSW,258,0.0,0.0,73,0.00,,,0.00,WeatherCatV1.02B3,2013-04-02 03:32:00,
2013-04-01 22:37:00,61.1,52.4,30.10,WSW,258,0.0,0.0,73,0.00,,,0.00,WeatherCatV1.02B3,2013-04-02 03:37:00,
2013-04-01 22:42:00,61.0,52.3,30.10,WSW,258,0.0,0.0,73,0.00,,,0.00,WeatherCatV1.02B3,2013-04-02 03:42:00,
2013-04-01 22:47:00,60.8,52.1,30.10,WSW,258,0.0,0.0,73,0.00,,,0.00,WeatherCatV1.02B3,2013-04-02 03:47:00,
2013-04-01 22:52:00,60.5,51.8,30.10,WSW,258,0.0,0.0,73,0.00,,,0.00,WeatherCatV1.02B3,2013-04-02 03:52:00,
2013-04-01 22:57:00,60.3,52.0,30.11,WSW,258,0.0,0.0,74,0.00,,,0.00,WeatherCatV1.02B3,2013-04-02 03:57:00,
2013-04-01 23:00:00,60.2,51.9,30.10,WSW,258,0.0,1.0,74,0.00,,,0.00,WeatherCatV1.02B3,2013-04-02 04:00:00,
2013-04-01 23:01:00,60.1,51.8,30.11,WSW,258,0.0,0.0,74,0.00,,,0.00,WeatherCatV1.02B3,2013-04-02 04:01:00,
2013-04-01 23:06:00,60.0,51.7,30.11,WSW,258,0.0,0.0,74,0.00,,,0.00,WeatherCatV1.02B3,2013-04-02 04:06:00,
2013-04-01 23:11:00,59.8,51.9,30.11,WSW,258,0.0,0.0,75,0.00,,,0.00,WeatherCatV1.02B3,2013-04-02 04:11:00,
2013-04-01 23:16:00,59.6,51.3,30.11,WSW,258,0.0,0.0,74,0.00,,,0.00,WeatherCatV1.02B3,2013-04-02 04:16:00,
2013-04-01 23:21:00,59.4,51.5,30.11,WSW,258,0.0,0.0,75,0.00,,,0.00,WeatherCatV1.02B3,2013-04-02 04:21:00,
2013-04-01 23:26:00,59.2,51.3,30.11,WSW,258,0.0,0.0,75,0.00,,,0.00,WeatherCatV1.02B3,2013-04-02 04:26:00,
2013-04-01 23:31:00,58.9,51.3,30.11,WSW,258,0.0,0.0,76,0.00,,,0.00,WeatherCatV1.02B3,2013-04-02 04:31:00,
2013-04-01 23:36:00,58.7,51.2,30.11,WSW,258,0.0,0.0,76,0.00,,,0.00,WeatherCatV1.02B3,2013-04-02 04:36:00,
2013-04-01 23:41:00,58.5,51.3,30.11,WSW,258,0.0,0.0,77,0.00,,,0.00,WeatherCatV1.02B3,2013-04-02 04:41:00,
2013-04-01 23:46:00,58.4,51.2,30.11,SSW,213,0.0,0.0,77,0.00,,,0.00,WeatherCatV1.02B3,2013-04-02 04:46:00,
2013-04-01 23:51:00,58.4,51.2,30.11,SSW,213,0.0,0.0,77,0.00,,,0.00,WeatherCatV1.02B3,2013-04-02 04:51:00,
2013-04-01 23:56:00,58.3,51.1,30.11,SSW,213,0.0,0.0,77,0.00,,,0.00,WeatherCatV1.02B3,2013-04-02 04:56:00,